KFLY

Meadow Lake Airport

Colorado Springs, Colorado, USA
METAR KFLY 201955Z AUTO 19006KT 10SM SCT031 21/08 A3034 RMK AO2 T02050082
Observed Flight Rules
Aug-20 @ 19:55 UTC (35 minutes ago) Visual Flight Rules
Wind Visibility Clouds
190° at 6 knots 10 miles
  • Scattered at 3,100' AGL
Temperatures Readings
Current 21°C / 70°F
Dewpoint 8°C / 46°F
Humidity 43%
Altimeter 30.34" Hg
Pressure 1027 hPa
Elevation 2096
METAR KFLY 201955Z AUTO 19006KT 10SM SCT031 21/08 A3034 RMK AO2 T02050082
Observed Flight Rules
Aug-20 @ 19:55 UTC
(35 minutes ago)
VFR
Wind Visibility
190° at 6 knots 10 miles
Clouds
  • Scattered at 3,100' AGL
Temperature Dewpoint
21°C / 70°F 8°C / 46°F
Humidity Altimeter Pressure
43% 30.34" Hg 1027 hPa